createdAt,value
2022-10-14T00:00:54.306Z,10.82
2022-10-14T00:05:56.357Z,11.20
2022-10-14T00:11:03.237Z,11.23
2022-10-14T00:16:14.739Z,10.13
2022-10-14T00:21:17.802Z,9.88
2022-10-14T00:26:23.144Z,7.53
2022-10-14T00:31:26.956Z,7.20
2022-10-14T00:36:29.092Z,6.82
2022-10-14T00:41:33.749Z,9.30
2022-10-14T00:46:40.955Z,6.18
2022-10-14T00:51:48.761Z,9.85
2022-10-14T00:56:51.666Z,5.25
2022-10-14T01:01:53.912Z,6.78
2022-10-14T01:07:15.344Z,11.63
2022-10-14T01:12:29.906Z,5.25
2022-10-14T01:17:40.981Z,11.98
2022-10-14T01:23:04.939Z,7.45
2022-10-14T01:28:24.738Z,10.85
2022-10-14T01:33:33.495Z,8.05
2022-10-14T01:38:41.101Z,4.93
2022-10-14T01:43:48.528Z,5.97
2022-10-14T01:48:56.538Z,13.52
2022-10-14T01:54:18.859Z,9.15
2022-10-14T01:59:23.038Z,6.53
2022-10-14T02:04:25.408Z,7.45
2022-10-14T02:09:46.317Z,5.62
2022-10-14T02:15:13.446Z,9.48
2022-10-14T02:20:35.328Z,7.15
2022-10-14T02:25:41.378Z,6.07
2022-10-14T02:30:49.144Z,7.05
2022-10-14T02:35:54.637Z,6.78
2022-10-14T02:40:57.907Z,7.05
2022-10-14T02:46:04.622Z,6.18
2022-10-14T02:51:07.217Z,8.18
2022-10-14T02:56:14.097Z,9.85
2022-10-14T03:01:16.181Z,8.82
2022-10-14T03:06:19.117Z,11.75
2022-10-14T03:11:21.755Z,9.10
2022-10-14T03:16:25.376Z,7.90
2022-10-14T03:21:27.696Z,5.90
2022-10-14T03:26:30.071Z,9.50
2022-10-14T03:31:32.284Z,7.15
2022-10-14T03:36:35.327Z,7.35
2022-10-14T03:41:38.623Z,9.07
2022-10-14T03:46:41.210Z,6.68
2022-10-14T03:51:43.331Z,9.75
2022-10-14T03:56:47.135Z,6.60
2022-10-14T04:01:50.809Z,10.90
2022-10-14T04:11:57.850Z,8.97
2022-10-14T04:17:01.245Z,9.45
2022-10-14T04:22:03.541Z,9.05
2022-10-14T04:27:07.824Z,9.43
2022-10-14T04:32:10.489Z,7.78
2022-10-14T04:37:12.717Z,8.73
2022-10-14T04:42:16.323Z,10.60
2022-10-14T04:47:20.075Z,7.62
2022-10-14T04:52:23.974Z,8.25
2022-10-14T04:57:27.134Z,6.97
2022-10-14T05:02:30.156Z,7.70
2022-10-14T05:07:33.137Z,10.70
2022-10-14T05:12:38.717Z,12.37
2022-10-14T05:17:44.415Z,9.18
2022-10-14T05:22:47.497Z,10.38
2022-10-14T05:27:49.761Z,12.88
2022-10-14T05:32:52.794Z,13.80
2022-10-14T05:37:59.528Z,11.55
2022-10-14T05:43:07.040Z,9.95
2022-10-14T05:48:10.646Z,11.45
2022-10-14T05:53:14.105Z,16.00
2022-10-14T05:58:16.696Z,7.93
2022-10-14T06:03:19.411Z,9.60
2022-10-14T06:08:23.330Z,12.55
2022-10-14T06:13:25.919Z,10.30
2022-10-14T06:18:29.838Z,14.23
2022-10-14T06:23:32.371Z,12.25
2022-10-14T06:28:34.793Z,12.15
2022-10-14T06:33:36.983Z,13.90
2022-10-14T06:38:39.056Z,11.10
2022-10-14T06:43:41.222Z,15.43
2022-10-14T06:48:46.880Z,12.85
2022-10-14T06:53:52.373Z,10.40
2022-10-14T06:58:55.438Z,12.88
2022-10-14T07:03:57.950Z,12.07
2022-10-14T07:09:00.092Z,10.68
2022-10-14T07:14:02.238Z,11.52
2022-10-14T07:19:04.350Z,15.10
2022-10-14T07:24:06.741Z,11.70
2022-10-14T07:29:08.938Z,14.23
2022-10-14T07:34:11.128Z,16.12
2022-10-14T07:39:13.706Z,12.65
2022-10-14T07:44:16.837Z,17.25
2022-10-14T07:49:21.062Z,13.65
2022-10-14T07:54:25.698Z,10.85
2022-10-14T07:59:27.854Z,15.73
2022-10-14T08:04:30.079Z,15.57
2022-10-14T08:09:35.487Z,15.30
2022-10-14T08:14:37.947Z,16.42
2022-10-14T08:19:40.062Z,13.75
2022-10-14T08:24:42.235Z,9.07
2022-10-14T08:29:44.331Z,19.33
2022-10-14T08:34:46.372Z,12.63
2022-10-14T08:39:48.454Z,15.43
2022-10-14T08:44:57.216Z,7.80
2022-10-14T08:50:06.777Z,13.93
2022-10-14T08:55:35.505Z,13.23
2022-10-14T09:00:38.906Z,10.77
2022-10-14T09:05:41.125Z,12.73
2022-10-14T09:10:44.021Z,11.35
2022-10-14T09:15:52.984Z,12.25
2022-10-14T09:20:57.363Z,8.50
2022-10-14T09:26:05.646Z,8.13
2022-10-14T09:31:12.318Z,8.25
2022-10-14T09:36:19.259Z,8.45
2022-10-14T09:41:30.712Z,17.45
2022-10-14T09:46:32.860Z,12.43
2022-10-14T09:51:35.215Z,8.52
2022-10-14T09:56:42.453Z,7.97
2022-10-14T10:01:54.228Z,14.18
2022-10-14T10:06:56.611Z,9.32
2022-10-14T10:11:58.624Z,10.23
2022-10-14T10:17:12.625Z,10.43
2022-10-14T10:22:23.882Z,11.05
2022-10-14T10:27:37.159Z,9.07
2022-10-14T10:32:50.324Z,15.32
2022-10-14T10:38:17.428Z,18.67
2022-10-14T10:43:40.481Z,8.07
2022-10-14T10:48:46.463Z,9.95
2022-10-14T10:54:06.521Z,12.20
2022-10-14T10:59:56.213Z,10.98
2022-10-14T11:05:27.670Z,15.48
2022-10-14T11:11:03.195Z,8.05
2022-10-14T11:16:16.025Z,11.00
2022-10-14T11:21:27.128Z,10.43
2022-10-14T11:26:43.360Z,14.93
2022-10-14T11:32:24.669Z,8.60
2022-10-14T11:37:48.223Z,14.55
2022-10-14T11:48:20.330Z,5.75
2022-10-14T11:53:41.957Z,4.22
2022-10-14T11:58:48.530Z,3.85
2022-10-14T12:04:09.315Z,3.92
2022-10-14T12:09:39.389Z,10.02
2022-10-14T12:14:51.645Z,8.77
2022-10-14T12:19:54.325Z,6.65
2022-10-14T12:30:02.693Z,6.28
2022-10-14T12:35:42.995Z,6.00
2022-10-14T12:40:45.906Z,6.45
2022-10-14T12:45:57.754Z,4.65
2022-10-14T12:51:16.434Z,7.28
2022-10-14T12:56:53.109Z,6.72
2022-10-14T13:01:57.996Z,4.00
2022-10-14T13:07:39.750Z,8.50
2022-10-14T13:12:42.360Z,3.25
2022-10-14T13:17:46.705Z,5.28
2022-10-14T13:22:49.402Z,3.12
2022-10-14T13:33:16.147Z,6.03
2022-10-14T13:43:31.163Z,5.20
2022-10-14T13:48:41.152Z,4.47
2022-10-14T13:54:32.749Z,4.72
2022-10-14T13:59:44.553Z,5.28
2022-10-14T14:05:03.262Z,3.65
2022-10-14T14:10:09.720Z,11.50
2022-10-14T14:15:26.837Z,9.75
2022-10-14T14:20:29.645Z,4.55
2022-10-14T14:25:36.106Z,10.13
2022-10-14T14:30:55.077Z,6.90
2022-10-14T14:36:12.076Z,8.55
2022-10-14T14:41:39.249Z,7.20
2022-10-14T14:46:45.262Z,6.65
2022-10-14T14:51:48.086Z,5.05
2022-10-14T14:56:59.663Z,5.90
2022-10-14T15:02:02.865Z,5.82
2022-10-14T15:07:21.522Z,4.03
2022-10-14T15:12:28.106Z,4.03
2022-10-14T15:17:43.052Z,4.62
2022-10-14T15:22:46.966Z,5.28
2022-10-14T15:27:55.817Z,4.80
2022-10-14T15:33:00.730Z,3.53
2022-10-14T15:38:02.951Z,2.72
2022-10-14T15:43:20.218Z,2.67
2022-10-14T15:48:22.280Z,7.60
2022-10-14T15:53:25.489Z,3.55
2022-10-14T15:58:27.591Z,4.82
2022-10-14T16:03:34.769Z,2.22
2022-10-14T16:08:46.507Z,3.28
2022-10-14T16:13:50.650Z,3.78
2022-10-14T16:18:52.832Z,4.12
2022-10-14T16:23:55.308Z,3.37
2022-10-14T16:29:00.145Z,3.65
2022-10-14T16:34:02.366Z,4.53
2022-10-14T16:39:04.653Z,5.95
2022-10-14T16:44:07.617Z,4.22
2022-10-14T16:49:10.096Z,6.22
2022-10-14T16:54:12.200Z,4.00
2022-10-14T16:59:15.408Z,9.25
2022-10-14T17:04:20.671Z,3.78
2022-10-14T17:14:31.090Z,2.78
2022-10-14T17:19:33.185Z,43.33
2022-10-14T17:24:35.236Z,11.20
2022-10-14T17:29:37.377Z,14.82
2022-10-14T17:34:39.408Z,9.63
2022-10-14T17:39:41.490Z,10.87
2022-10-14T17:44:44.014Z,10.55
2022-10-14T17:49:47.071Z,14.20
2022-10-14T17:59:51.505Z,32.60
2022-10-14T18:04:53.559Z,36.55
2022-10-14T18:09:55.677Z,25.45
2022-10-14T18:14:57.741Z,29.45
2022-10-14T18:20:04.035Z,19.77
2022-10-14T18:25:06.553Z,28.20
2022-10-14T18:30:09.972Z,19.35
2022-10-14T18:35:12.058Z,24.95
2022-10-14T18:40:16.846Z,15.98
2022-10-14T18:45:18.833Z,10.40
2022-10-14T18:50:20.874Z,4.60
2022-10-14T18:55:22.956Z,4.37
2022-10-14T19:00:26.738Z,3.55
2022-10-14T19:05:32.932Z,7.18
2022-10-14T19:10:35.394Z,4.18
2022-10-14T19:15:53.687Z,3.42
2022-10-14T19:21:03.802Z,5.72
2022-10-14T19:26:11.096Z,5.43
2022-10-14T19:31:16.583Z,4.80
2022-10-14T19:36:19.747Z,7.65
2022-10-14T19:41:21.810Z,5.00
2022-10-14T19:46:27.445Z,2.87
2022-10-14T19:51:30.560Z,3.00
2022-10-14T19:56:32.627Z,1.25
2022-10-14T20:01:34.815Z,3.20
2022-10-14T20:06:38.472Z,3.60
2022-10-14T20:11:41.375Z,1.10
2022-10-14T20:16:43.498Z,2.08
2022-10-14T20:21:45.561Z,2.58
2022-10-14T20:26:47.640Z,3.47
2022-10-14T20:31:49.768Z,1.17
2022-10-14T20:36:53.230Z,1.75
2022-10-14T20:41:55.684Z,2.67
2022-10-14T20:46:57.870Z,1.75
2022-10-14T20:51:59.983Z,3.85
2022-10-14T20:57:02.056Z,2.95
2022-10-14T21:02:04.105Z,0.70
2022-10-14T21:07:06.198Z,1.60
2022-10-14T21:12:08.208Z,1.40
2022-10-14T21:17:10.197Z,1.63
2022-10-14T21:22:12.300Z,2.15
2022-10-14T21:27:14.357Z,1.37
2022-10-14T21:32:16.454Z,0.82
2022-10-14T21:37:20.226Z,3.58
2022-10-14T21:42:22.585Z,4.68
2022-10-14T21:47:24.866Z,0.95
2022-10-14T21:52:26.944Z,0.80
2022-10-14T21:57:29.015Z,12.32
2022-10-14T22:02:31.053Z,0.88
2022-10-14T22:07:33.111Z,1.87
2022-10-14T22:12:35.149Z,0.68
2022-10-14T22:17:37.147Z,0.57
2022-10-14T22:22:39.146Z,1.00
2022-10-14T22:27:41.201Z,1.10
2022-10-14T22:32:43.512Z,1.12
2022-10-14T22:37:45.583Z,1.02
2022-10-14T22:42:51.300Z,0.52
2022-10-14T22:47:53.685Z,0.30
2022-10-14T22:52:55.704Z,0.77
2022-10-14T22:57:57.785Z,1.00
2022-10-14T23:03:00.291Z,0.30
2022-10-14T23:08:02.496Z,0.30
2022-10-14T23:13:05.767Z,2.00
2022-10-14T23:18:07.813Z,0.30
2022-10-14T23:23:10.407Z,0.88
2022-10-14T23:28:12.655Z,0.37
2022-10-14T23:33:14.711Z,0.22
2022-10-14T23:38:16.769Z,0.37
2022-10-14T23:43:19.251Z,0.47
2022-10-14T23:48:21.765Z,0.28
2022-10-14T23:53:26.311Z,3.40
2022-10-14T23:58:29.635Z,0.60
